Weather at Rijeka Airport

Public forecast

Using degrees Celsius for public forecast. Weather courtesy of forecast.io.

Current aviation weather report (METAR) for Rijeka Airport

Retrieved 2020/09/23 16:30 UTC (0 seconds ago):

LDRI 231630Z 13005KT 070V150 9999 FEW027 SCT040 19/18 Q1010

Aviation forecast (TAF) for Rijeka Airport

Retrieved 2020/09/23 12:00 UTC (4 hours ago):

TAF LDRI 231125Z 2312/2412 14008KT 9999 FEW020 BKN040 TX21/2313Z TN17/2405Z PROB40 TEMPO 2312/2412 4000 TSRA FEW020CB BKN035 PROB30 TEMPO 2321/2409 BKN010